sensor_id;sensor_type;location;lat;lon;timestamp;temperature;humidity
10123;DHT22;5101;49.038;8.710;2022-10-16T00:01:27;17.00;99.90
10123;DHT22;5101;49.038;8.710;2022-10-16T00:03:55;17.00;99.90
10123;DHT22;5101;49.038;8.710;2022-10-16T00:06:21;17.00;99.90
10123;DHT22;5101;49.038;8.710;2022-10-16T00:08:48;17.00;99.90
10123;DHT22;5101;49.038;8.710;2022-10-16T00:11:16;17.00;99.90
10123;DHT22;5101;49.038;8.710;2022-10-16T00:13:43;17.00;99.90
10123;DHT22;5101;49.038;8.710;2022-10-16T00:16:12;17.00;99.90
10123;DHT22;5101;49.038;8.710;2022-10-16T00:18:39;17.00;99.90
10123;DHT22;5101;49.038;8.710;2022-10-16T00:21:13;17.00;99.90
10123;DHT22;5101;49.038;8.710;2022-10-16T00:23:40;17.00;99.90
10123;DHT22;5101;49.038;8.710;2022-10-16T00:26:08;17.00;99.90
10123;DHT22;5101;49.038;8.710;2022-10-16T00:28:35;17.10;99.90
10123;DHT22;5101;49.038;8.710;2022-10-16T00:31:11;17.10;99.90
10123;DHT22;5101;49.038;8.710;2022-10-16T00:33:38;17.00;99.90
10123;DHT22;5101;49.038;8.710;2022-10-16T00:36:05;17.10;99.90
10123;DHT22;5101;49.038;8.710;2022-10-16T00:38:31;17.10;99.90
10123;DHT22;5101;49.038;8.710;2022-10-16T00:40:57;17.10;99.90
10123;DHT22;5101;49.038;8.710;2022-10-16T00:46:13;17.10;99.90
10123;DHT22;5101;49.038;8.710;2022-10-16T00:48:40;17.10;99.90
10123;DHT22;5101;49.038;8.710;2022-10-16T00:51:07;17.10;99.90
10123;DHT22;5101;49.038;8.710;2022-10-16T00:53:33;17.10;99.90
10123;DHT22;5101;49.038;8.710;2022-10-16T00:56:00;17.10;99.90
10123;DHT22;5101;49.038;8.710;2022-10-16T00:58:26;17.00;99.90
10123;DHT22;5101;49.038;8.710;2022-10-16T01:00:51;17.00;99.90
10123;DHT22;5101;49.038;8.710;2022-10-16T01:03:32;17.00;99.90
10123;DHT22;5101;49.038;8.710;2022-10-16T01:11:30;17.10;99.90
10123;DHT22;5101;49.038;8.710;2022-10-16T01:14:01;17.10;99.90
10123;DHT22;5101;49.038;8.710;2022-10-16T01:16:44;17.00;99.90
10123;DHT22;5101;49.038;8.710;2022-10-16T01:19:26;17.00;99.90
10123;DHT22;5101;49.038;8.710;2022-10-16T01:21:58;17.00;99.90
10123;DHT22;5101;49.038;8.710;2022-10-16T01:24:40;17.00;99.90
10123;DHT22;5101;49.038;8.710;2022-10-16T01:27:27;17.00;99.90
10123;DHT22;5101;49.038;8.710;2022-10-16T01:30:16;17.00;99.90
10123;DHT22;5101;49.038;8.710;2022-10-16T01:33:03;17.00;99.90
10123;DHT22;5101;49.038;8.710;2022-10-16T01:35:36;17.00;99.90
10123;DHT22;5101;49.038;8.710;2022-10-16T01:38:08;17.00;99.90
10123;DHT22;5101;49.038;8.710;2022-10-16T01:40:38;17.00;99.90
10123;DHT22;5101;49.038;8.710;2022-10-16T01:43:15;17.00;99.90
10123;DHT22;5101;49.038;8.710;2022-10-16T01:45:41;17.00;99.90
10123;DHT22;5101;49.038;8.710;2022-10-16T01:48:12;17.00;99.90
10123;DHT22;5101;49.038;8.710;2022-10-16T01:50:39;17.00;99.90
10123;DHT22;5101;49.038;8.710;2022-10-16T01:53:09;17.00;99.90
10123;DHT22;5101;49.038;8.710;2022-10-16T01:55:39;17.00;99.90
10123;DHT22;5101;49.038;8.710;2022-10-16T01:58:08;17.00;99.90
10123;DHT22;5101;49.038;8.710;2022-10-16T02:00:37;17.00;99.90
10123;DHT22;5101;49.038;8.710;2022-10-16T02:03:04;16.90;99.90
10123;DHT22;5101;49.038;8.710;2022-10-16T02:05:38;16.90;99.90
10123;DHT22;5101;49.038;8.710;2022-10-16T02:08:05;16.90;99.90
10123;DHT22;5101;49.038;8.710;2022-10-16T02:10:31;16.90;99.90
10123;DHT22;5101;49.038;8.710;2022-10-16T02:15:37;16.90;99.90
10123;DHT22;5101;49.038;8.710;2022-10-16T02:18:04;16.90;99.90
10123;DHT22;5101;49.038;8.710;2022-10-16T02:20:34;16.90;99.90
10123;DHT22;5101;49.038;8.710;2022-10-16T02:23:02;17.00;99.90
10123;DHT22;5101;49.038;8.710;2022-10-16T02:28:03;17.00;99.90
10123;DHT22;5101;49.038;8.710;2022-10-16T02:30:45;17.00;99.90
10123;DHT22;5101;49.038;8.710;2022-10-16T02:33:14;17.00;99.90
10123;DHT22;5101;49.038;8.710;2022-10-16T02:35:41;16.90;99.90
10123;DHT22;5101;49.038;8.710;2022-10-16T02:38:08;16.90;99.90
10123;DHT22;5101;49.038;8.710;2022-10-16T02:40:34;16.90;99.90
10123;DHT22;5101;49.038;8.710;2022-10-16T02:42:59;16.90;99.90
10123;DHT22;5101;49.038;8.710;2022-10-16T02:45:25;16.90;99.90
10123;DHT22;5101;49.038;8.710;2022-10-16T02:47:51;16.90;99.90
10123;DHT22;5101;49.038;8.710;2022-10-16T02:50:17;16.90;99.90
10123;DHT22;5101;49.038;8.710;2022-10-16T02:52:42;16.90;99.90
10123;DHT22;5101;49.038;8.710;2022-10-16T02:55:08;16.90;99.90
10123;DHT22;5101;49.038;8.710;2022-10-16T02:57:33;16.90;99.90
10123;DHT22;5101;49.038;8.710;2022-10-16T02:59:59;16.90;99.90
10123;DHT22;5101;49.038;8.710;2022-10-16T03:02:25;16.90;99.90
10123;DHT22;5101;49.038;8.710;2022-10-16T03:04:50;16.80;99.90
10123;DHT22;5101;49.038;8.710;2022-10-16T03:07:16;16.80;99.90
10123;DHT22;5101;49.038;8.710;2022-10-16T03:09:41;16.80;99.90
10123;DHT22;5101;49.038;8.710;2022-10-16T03:12:07;16.80;99.90
10123;DHT22;5101;49.038;8.710;2022-10-16T03:14:33;16.80;99.90
10123;DHT22;5101;49.038;8.710;2022-10-16T03:16:59;16.80;99.90
10123;DHT22;5101;49.038;8.710;2022-10-16T03:19:24;16.80;99.90
10123;DHT22;5101;49.038;8.710;2022-10-16T03:21:50;16.80;99.90
10123;DHT22;5101;49.038;8.710;2022-10-16T03:24:15;16.80;99.90
10123;DHT22;5101;49.038;8.710;2022-10-16T03:26:41;16.80;99.90
10123;DHT22;5101;49.038;8.710;2022-10-16T03:29:06;16.80;99.90
10123;DHT22;5101;49.038;8.710;2022-10-16T03:31:32;16.80;99.90
10123;DHT22;5101;49.038;8.710;2022-10-16T03:33:58;16.70;99.90
10123;DHT22;5101;49.038;8.710;2022-10-16T03:36:23;16.70;99.90
10123;DHT22;5101;49.038;8.710;2022-10-16T03:38:49;16.70;99.90
10123;DHT22;5101;49.038;8.710;2022-10-16T03:41:14;16.70;99.90
10123;DHT22;5101;49.038;8.710;2022-10-16T03:43:40;16.70;99.90
10123;DHT22;5101;49.038;8.710;2022-10-16T03:46:05;16.70;99.90
10123;DHT22;5101;49.038;8.710;2022-10-16T03:48:31;16.70;99.90
10123;DHT22;5101;49.038;8.710;2022-10-16T03:50:57;16.70;99.90
10123;DHT22;5101;49.038;8.710;2022-10-16T03:53:23;16.70;99.90
10123;DHT22;5101;49.038;8.710;2022-10-16T03:55:48;16.70;99.90
10123;DHT22;5101;49.038;8.710;2022-10-16T03:58:14;16.70;99.90
10123;DHT22;5101;49.038;8.710;2022-10-16T04:00:44;16.70;99.90
10123;DHT22;5101;49.038;8.710;2022-10-16T04:03:10;16.70;99.90
10123;DHT22;5101;49.038;8.710;2022-10-16T04:05:36;16.70;99.90
10123;DHT22;5101;49.038;8.710;2022-10-16T04:08:02;16.70;99.90
10123;DHT22;5101;49.038;8.710;2022-10-16T04:10:28;16.70;99.90
10123;DHT22;5101;49.038;8.710;2022-10-16T04:12:53;16.70;99.90
10123;DHT22;5101;49.038;8.710;2022-10-16T04:15:21;16.70;99.90
10123;DHT22;5101;49.038;8.710;2022-10-16T04:17:47;16.70;99.90
10123;DHT22;5101;49.038;8.710;2022-10-16T04:20:13;16.70;99.90
10123;DHT22;5101;49.038;8.710;2022-10-16T04:22:38;16.60;99.90
10123;DHT22;5101;49.038;8.710;2022-10-16T04:25:04;16.60;99.90
10123;DHT22;5101;49.038;8.710;2022-10-16T04:27:30;16.60;99.90
10123;DHT22;5101;49.038;8.710;2022-10-16T04:29:57;16.60;99.90
10123;DHT22;5101;49.038;8.710;2022-10-16T04:32:22;16.60;99.90
10123;DHT22;5101;49.038;8.710;2022-10-16T04:34:48;16.50;99.90
10123;DHT22;5101;49.038;8.710;2022-10-16T04:37:13;16.70;99.90
10123;DHT22;5101;49.038;8.710;2022-10-16T04:39:39;16.60;99.90
10123;DHT22;5101;49.038;8.710;2022-10-16T04:42:04;16.60;99.90
10123;DHT22;5101;49.038;8.710;2022-10-16T04:44:30;16.60;99.90
10123;DHT22;5101;49.038;8.710;2022-10-16T04:46:55;16.60;99.90
10123;DHT22;5101;49.038;8.710;2022-10-16T04:49:21;16.60;99.90
10123;DHT22;5101;49.038;8.710;2022-10-16T04:51:46;16.60;99.90
10123;DHT22;5101;49.038;8.710;2022-10-16T04:54:12;16.60;99.90
10123;DHT22;5101;49.038;8.710;2022-10-16T04:56:37;16.60;99.90
10123;DHT22;5101;49.038;8.710;2022-10-16T04:59:11;16.60;99.90
10123;DHT22;5101;49.038;8.710;2022-10-16T05:01:36;16.60;99.90
10123;DHT22;5101;49.038;8.710;2022-10-16T05:04:02;16.60;99.90
10123;DHT22;5101;49.038;8.710;2022-10-16T05:06:27;16.50;99.90
10123;DHT22;5101;49.038;8.710;2022-10-16T05:08:53;16.50;99.90
10123;DHT22;5101;49.038;8.710;2022-10-16T05:11:18;16.50;99.90
10123;DHT22;5101;49.038;8.710;2022-10-16T05:13:44;16.50;99.90
10123;DHT22;5101;49.038;8.710;2022-10-16T05:16:09;16.50;99.90
10123;DHT22;5101;49.038;8.710;2022-10-16T05:18:35;16.50;99.90
10123;DHT22;5101;49.038;8.710;2022-10-16T05:21:00;16.50;99.90
10123;DHT22;5101;49.038;8.710;2022-10-16T05:23:26;16.50;99.90
10123;DHT22;5101;49.038;8.710;2022-10-16T05:25:56;16.50;99.90
10123;DHT22;5101;49.038;8.710;2022-10-16T05:28:24;16.50;99.90
10123;DHT22;5101;49.038;8.710;2022-10-16T05:30:49;16.50;99.90
10123;DHT22;5101;49.038;8.710;2022-10-16T05:33:15;16.50;99.90
10123;DHT22;5101;49.038;8.710;2022-10-16T05:35:40;16.50;99.90
10123;DHT22;5101;49.038;8.710;2022-10-16T05:38:06;16.50;99.90
10123;DHT22;5101;49.038;8.710;2022-10-16T05:40:32;16.50;99.90
10123;DHT22;5101;49.038;8.710;2022-10-16T05:42:57;16.50;99.90
10123;DHT22;5101;49.038;8.710;2022-10-16T05:45:23;16.50;99.90
10123;DHT22;5101;49.038;8.710;2022-10-16T05:47:48;16.40;99.90
10123;DHT22;5101;49.038;8.710;2022-10-16T05:50:14;16.40;99.90
10123;DHT22;5101;49.038;8.710;2022-10-16T05:52:39;16.40;99.90
10123;DHT22;5101;49.038;8.710;2022-10-16T05:55:05;16.30;99.90
10123;DHT22;5101;49.038;8.710;2022-10-16T05:57:31;16.30;99.90
10123;DHT22;5101;49.038;8.710;2022-10-16T05:59:56;16.30;99.90
10123;DHT22;5101;49.038;8.710;2022-10-16T06:02:22;16.20;99.90
10123;DHT22;5101;49.038;8.710;2022-10-16T06:04:47;16.30;99.90
10123;DHT22;5101;49.038;8.710;2022-10-16T06:07:13;16.20;99.90
10123;DHT22;5101;49.038;8.710;2022-10-16T06:09:38;16.20;99.90
10123;DHT22;5101;49.038;8.710;2022-10-16T06:12:04;16.20;99.90
10123;DHT22;5101;49.038;8.710;2022-10-16T06:14:29;16.20;99.90
10123;DHT22;5101;49.038;8.710;2022-10-16T06:16:55;16.20;99.90
10123;DHT22;5101;49.038;8.710;2022-10-16T06:19:21;16.20;99.90
10123;DHT22;5101;49.038;8.710;2022-10-16T06:21:46;16.20;99.90
10123;DHT22;5101;49.038;8.710;2022-10-16T06:24:12;16.20;99.90
10123;DHT22;5101;49.038;8.710;2022-10-16T06:26:37;16.30;99.90
10123;DHT22;5101;49.038;8.710;2022-10-16T06:29:04;16.30;99.90
10123;DHT22;5101;49.038;8.710;2022-10-16T06:31:29;16.30;99.90
10123;DHT22;5101;49.038;8.710;2022-10-16T06:33:57;16.20;99.90
10123;DHT22;5101;49.038;8.710;2022-10-16T06:36:23;16.20;99.90
10123;DHT22;5101;49.038;8.710;2022-10-16T06:38:49;16.30;99.90
10123;DHT22;5101;49.038;8.710;2022-10-16T06:41:17;16.20;99.90
10123;DHT22;5101;49.038;8.710;2022-10-16T06:43:43;16.20;99.90
10123;DHT22;5101;49.038;8.710;2022-10-16T06:46:11;16.20;99.90
10123;DHT22;5101;49.038;8.710;2022-10-16T06:48:37;16.30;99.90
10123;DHT22;5101;49.038;8.710;2022-10-16T06:51:04;16.30;99.90
10123;DHT22;5101;49.038;8.710;2022-10-16T06:53:33;16.30;99.90
10123;DHT22;5101;49.038;8.710;2022-10-16T06:56:10;16.30;99.90
10123;DHT22;5101;49.038;8.710;2022-10-16T06:58:36;16.30;99.90
10123;DHT22;5101;49.038;8.710;2022-10-16T07:01:02;16.30;99.90
10123;DHT22;5101;49.038;8.710;2022-10-16T07:03:27;16.30;99.90
10123;DHT22;5101;49.038;8.710;2022-10-16T07:05:53;16.20;99.90
10123;DHT22;5101;49.038;8.710;2022-10-16T07:08:18;16.30;99.90
10123;DHT22;5101;49.038;8.710;2022-10-16T07:10:43;16.30;99.90
10123;DHT22;5101;49.038;8.710;2022-10-16T07:13:09;16.30;99.90
10123;DHT22;5101;49.038;8.710;2022-10-16T07:15:38;16.30;99.90
10123;DHT22;5101;49.038;8.710;2022-10-16T07:18:04;16.40;99.90
10123;DHT22;5101;49.038;8.710;2022-10-16T07:20:29;16.40;99.90
10123;DHT22;5101;49.038;8.710;2022-10-16T07:22:55;16.50;99.90
10123;DHT22;5101;49.038;8.710;2022-10-16T07:25:20;16.50;99.90
10123;DHT22;5101;49.038;8.710;2022-10-16T07:27:45;16.60;99.90
10123;DHT22;5101;49.038;8.710;2022-10-16T07:30:11;16.60;99.90
10123;DHT22;5101;49.038;8.710;2022-10-16T07:32:37;16.70;99.90
10123;DHT22;5101;49.038;8.710;2022-10-16T07:35:03;16.80;99.90
10123;DHT22;5101;49.038;8.710;2022-10-16T07:37:29;16.90;99.90
10123;DHT22;5101;49.038;8.710;2022-10-16T07:39:54;17.00;99.90
10123;DHT22;5101;49.038;8.710;2022-10-16T07:42:20;17.10;99.90
10123;DHT22;5101;49.038;8.710;2022-10-16T07:44:45;17.20;99.90
10123;DHT22;5101;49.038;8.710;2022-10-16T07:47:11;17.30;99.90
10123;DHT22;5101;49.038;8.710;2022-10-16T07:49:36;17.40;99.90
10123;DHT22;5101;49.038;8.710;2022-10-16T07:52:02;17.40;99.90
10123;DHT22;5101;49.038;8.710;2022-10-16T07:54:27;17.50;99.90
10123;DHT22;5101;49.038;8.710;2022-10-16T07:56:53;17.60;99.90
10123;DHT22;5101;49.038;8.710;2022-10-16T07:59:18;17.60;99.90
10123;DHT22;5101;49.038;8.710;2022-10-16T08:01:44;17.80;99.90
10123;DHT22;5101;49.038;8.710;2022-10-16T08:04:10;18.00;99.90
10123;DHT22;5101;49.038;8.710;2022-10-16T08:06:40;18.00;99.90
10123;DHT22;5101;49.038;8.710;2022-10-16T08:09:07;18.10;99.90
10123;DHT22;5101;49.038;8.710;2022-10-16T08:11:32;18.20;99.90
10123;DHT22;5101;49.038;8.710;2022-10-16T08:13:58;18.30;99.90
10123;DHT22;5101;49.038;8.710;2022-10-16T08:16:23;18.40;99.90
10123;DHT22;5101;49.038;8.710;2022-10-16T08:18:49;18.50;99.90
10123;DHT22;5101;49.038;8.710;2022-10-16T08:21:18;18.60;99.90
10123;DHT22;5101;49.038;8.710;2022-10-16T08:23:44;18.70;99.90
10123;DHT22;5101;49.038;8.710;2022-10-16T08:26:10;18.80;99.90
10123;DHT22;5101;49.038;8.710;2022-10-16T08:28:36;18.90;99.90
10123;DHT22;5101;49.038;8.710;2022-10-16T08:31:10;19.20;99.90
10123;DHT22;5101;49.038;8.710;2022-10-16T08:33:37;19.70;99.90
10123;DHT22;5101;49.038;8.710;2022-10-16T08:36:04;20.30;99.90
10123;DHT22;5101;49.038;8.710;2022-10-16T08:38:29;20.70;99.90
10123;DHT22;5101;49.038;8.710;2022-10-16T08:49:12;21.20;99.90
10123;DHT22;5101;49.038;8.710;2022-10-16T08:51:41;21.30;99.90
10123;DHT22;5101;49.038;8.710;2022-10-16T08:56:56;21.40;99.90
10123;DHT22;5101;49.038;8.710;2022-10-16T08:59:22;21.50;99.90
10123;DHT22;5101;49.038;8.710;2022-10-16T09:01:51;21.60;99.90
10123;DHT22;5101;49.038;8.710;2022-10-16T09:10:03;22.10;99.90
10123;DHT22;5101;49.038;8.710;2022-10-16T09:12:51;22.30;99.90
10123;DHT22;5101;49.038;8.710;2022-10-16T09:15:33;22.60;99.40
10123;DHT22;5101;49.038;8.710;2022-10-16T09:18:16;23.00;98.40
10123;DHT22;5101;49.038;8.710;2022-10-16T09:23:17;24.00;96.50
10123;DHT22;5101;49.038;8.710;2022-10-16T09:25:48;24.60;95.40
10123;DHT22;5101;49.038;8.710;2022-10-16T09:28:16;25.10;93.60
10123;DHT22;5101;49.038;8.710;2022-10-16T09:30:42;25.30;92.60
10123;DHT22;5101;49.038;8.710;2022-10-16T09:33:09;25.40;91.80
10123;DHT22;5101;49.038;8.710;2022-10-16T09:35:50;25.80;91.30
10123;DHT22;5101;49.038;8.710;2022-10-16T09:38:31;26.00;89.80
10123;DHT22;5101;49.038;8.710;2022-10-16T09:41:21;26.10;89.10
10123;DHT22;5101;49.038;8.710;2022-10-16T09:43:53;26.30;87.70
10123;DHT22;5101;49.038;8.710;2022-10-16T09:46:27;26.40;87.20
10123;DHT22;5101;49.038;8.710;2022-10-16T09:49:23;26.50;86.00
10123;DHT22;5101;49.038;8.710;2022-10-16T09:51:49;26.50;85.00
10123;DHT22;5101;49.038;8.710;2022-10-16T09:54:20;26.50;85.70
10123;DHT22;5101;49.038;8.710;2022-10-16T09:56:46;26.50;85.60
10123;DHT22;5101;49.038;8.710;2022-10-16T09:59:19;26.40;87.00
10123;DHT22;5101;49.038;8.710;2022-10-16T10:01:48;26.40;87.30
10123;DHT22;5101;49.038;8.710;2022-10-16T10:04:14;26.50;87.10
10123;DHT22;5101;49.038;8.710;2022-10-16T10:09:30;26.60;85.30
10123;DHT22;5101;49.038;8.710;2022-10-16T10:11:59;26.70;84.70
10123;DHT22;5101;49.038;8.710;2022-10-16T10:17:08;26.90;83.00
10123;DHT22;5101;49.038;8.710;2022-10-16T10:19:58;27.10;82.90
10123;DHT22;5101;49.038;8.710;2022-10-16T10:30:30;27.00;79.50
10123;DHT22;5101;49.038;8.710;2022-10-16T10:35:54;26.90;79.90
10123;DHT22;5101;49.038;8.710;2022-10-16T10:46:51;26.70;80.40
10123;DHT22;5101;49.038;8.710;2022-10-16T10:58:05;26.80;78.50
10123;DHT22;5101;49.038;8.710;2022-10-16T11:03:22;26.90;76.90
10123;DHT22;5101;49.038;8.710;2022-10-16T11:05:58;27.00;77.10
10123;DHT22;5101;49.038;8.710;2022-10-16T11:08:39;27.10;76.90
10123;DHT22;5101;49.038;8.710;2022-10-16T11:11:14;27.20;76.40
10123;DHT22;5101;49.038;8.710;2022-10-16T11:17:10;27.40;72.90
10123;DHT22;5101;49.038;8.710;2022-10-16T11:19:46;27.40;72.60
10123;DHT22;5101;49.038;8.710;2022-10-16T11:22:33;27.20;73.20
10123;DHT22;5101;49.038;8.710;2022-10-16T11:25:16;27.20;73.70
10123;DHT22;5101;49.038;8.710;2022-10-16T11:27:55;27.20;74.20
10123;DHT22;5101;49.038;8.710;2022-10-16T11:30:28;27.20;74.40
10123;DHT22;5101;49.038;8.710;2022-10-16T11:38:19;26.70;74.20
10123;DHT22;5101;49.038;8.710;2022-10-16T11:40:48;26.50;74.80
10123;DHT22;5101;49.038;8.710;2022-10-16T11:43:27;26.50;75.70
10123;DHT22;5101;49.038;8.710;2022-10-16T11:46:00;26.50;75.70
10123;DHT22;5101;49.038;8.710;2022-10-16T11:50:56;26.50;76.40
10123;DHT22;5101;49.038;8.710;2022-10-16T11:56:06;26.30;76.20
10123;DHT22;5101;49.038;8.710;2022-10-16T11:58:41;26.30;76.70
10123;DHT22;5101;49.038;8.710;2022-10-16T12:04:16;26.30;76.80
10123;DHT22;5101;49.038;8.710;2022-10-16T12:06:51;26.30;76.80
10123;DHT22;5101;49.038;8.710;2022-10-16T12:09:29;26.30;76.40
10123;DHT22;5101;49.038;8.710;2022-10-16T12:11:56;26.10;75.80
10123;DHT22;5101;49.038;8.710;2022-10-16T12:14:36;26.00;76.50
10123;DHT22;5101;49.038;8.710;2022-10-16T12:19:57;26.00;77.30
10123;DHT22;5101;49.038;8.710;2022-10-16T12:22:24;25.90;77.10
10123;DHT22;5101;49.038;8.710;2022-10-16T12:24:52;25.90;77.60
10123;DHT22;5101;49.038;8.710;2022-10-16T12:27:31;25.90;77.40
10123;DHT22;5101;49.038;8.710;2022-10-16T12:30:02;25.80;77.10
10123;DHT22;5101;49.038;8.710;2022-10-16T12:32:37;25.80;78.20
10123;DHT22;5101;49.038;8.710;2022-10-16T12:35:06;25.80;78.80
10123;DHT22;5101;49.038;8.710;2022-10-16T12:37:34;25.70;78.40
10123;DHT22;5101;49.038;8.710;2022-10-16T12:40:31;25.70;79.00
10123;DHT22;5101;49.038;8.710;2022-10-16T12:42:57;25.70;80.30
10123;DHT22;5101;49.038;8.710;2022-10-16T12:45:32;25.70;80.30
10123;DHT22;5101;49.038;8.710;2022-10-16T12:48:00;25.70;80.00
10123;DHT22;5101;49.038;8.710;2022-10-16T12:50:32;25.60;79.60
10123;DHT22;5101;49.038;8.710;2022-10-16T12:53:00;25.60;80.60
10123;DHT22;5101;49.038;8.710;2022-10-16T12:55:27;25.60;81.20
10123;DHT22;5101;49.038;8.710;2022-10-16T12:58:14;25.50;80.90
10123;DHT22;5101;49.038;8.710;2022-10-16T13:01:01;25.50;81.30
10123;DHT22;5101;49.038;8.710;2022-10-16T13:04:00;25.50;81.80
10123;DHT22;5101;49.038;8.710;2022-10-16T13:06:43;25.40;81.70
10123;DHT22;5101;49.038;8.710;2022-10-16T13:14:35;25.30;82.70
10123;DHT22;5101;49.038;8.710;2022-10-16T13:19:46;25.30;83.60
10123;DHT22;5101;49.038;8.710;2022-10-16T13:30:19;25.00;84.00
10123;DHT22;5101;49.038;8.710;2022-10-16T13:32:48;25.00;85.50
10123;DHT22;5101;49.038;8.710;2022-10-16T13:35:29;25.00;86.30
10123;DHT22;5101;49.038;8.710;2022-10-16T13:40:37;24.90;86.30
10123;DHT22;5101;49.038;8.710;2022-10-16T13:43:12;24.70;87.10
10123;DHT22;5101;49.038;8.710;2022-10-16T13:45:38;24.70;88.40
10123;DHT22;5101;49.038;8.710;2022-10-16T13:48:09;24.70;87.60
10123;DHT22;5101;49.038;8.710;2022-10-16T13:50:37;24.60;87.30
10123;DHT22;5101;49.038;8.710;2022-10-16T13:53:13;24.50;87.40
10123;DHT22;5101;49.038;8.710;2022-10-16T13:55:39;24.50;89.30
10123;DHT22;5101;49.038;8.710;2022-10-16T13:58:10;24.40;89.60
10123;DHT22;5101;49.038;8.710;2022-10-16T14:00:37;24.40;90.00
10123;DHT22;5101;49.038;8.710;2022-10-16T14:03:13;24.40;90.30
10123;DHT22;5101;49.038;8.710;2022-10-16T14:05:55;24.30;90.50
10123;DHT22;5101;49.038;8.710;2022-10-16T14:08:22;24.40;90.60
10123;DHT22;5101;49.038;8.710;2022-10-16T14:10:54;24.30;90.70
10123;DHT22;5101;49.038;8.710;2022-10-16T14:13:32;24.30;91.10
10123;DHT22;5101;49.038;8.710;2022-10-16T14:16:02;24.30;91.10
10123;DHT22;5101;49.038;8.710;2022-10-16T14:18:28;24.30;91.10
10123;DHT22;5101;49.038;8.710;2022-10-16T14:20:54;24.30;90.90
10123;DHT22;5101;49.038;8.710;2022-10-16T14:23:35;24.20;90.90
10123;DHT22;5101;49.038;8.710;2022-10-16T14:28:39;24.10;91.30
10123;DHT22;5101;49.038;8.710;2022-10-16T14:31:31;24.20;91.20
10123;DHT22;5101;49.038;8.710;2022-10-16T14:33:57;24.10;91.30
10123;DHT22;5101;49.038;8.710;2022-10-16T14:36:23;24.10;91.30
10123;DHT22;5101;49.038;8.710;2022-10-16T14:39:17;24.10;91.40
10123;DHT22;5101;49.038;8.710;2022-10-16T14:41:48;24.00;91.30
10123;DHT22;5101;49.038;8.710;2022-10-16T14:44:14;23.90;91.30
10123;DHT22;5101;49.038;8.710;2022-10-16T14:46:43;23.90;91.60
10123;DHT22;5101;49.038;8.710;2022-10-16T14:51:36;23.80;92.00
10123;DHT22;5101;49.038;8.710;2022-10-16T14:54:02;23.80;92.20
10123;DHT22;5101;49.038;8.710;2022-10-16T14:56:51;23.70;92.20
10123;DHT22;5101;49.038;8.710;2022-10-16T14:59:36;23.70;92.30
10123;DHT22;5101;49.038;8.710;2022-10-16T15:02:27;23.70;92.30
10123;DHT22;5101;49.038;8.710;2022-10-16T15:04:54;23.70;92.10
10123;DHT22;5101;49.038;8.710;2022-10-16T15:07:20;23.60;92.10
10123;DHT22;5101;49.038;8.710;2022-10-16T15:09:45;23.60;91.90
10123;DHT22;5101;49.038;8.710;2022-10-16T15:12:11;23.60;92.00
10123;DHT22;5101;49.038;8.710;2022-10-16T15:14:37;23.60;92.10
10123;DHT22;5101;49.038;8.710;2022-10-16T15:17:02;23.60;92.20
10123;DHT22;5101;49.038;8.710;2022-10-16T15:19:28;23.50;92.40
10123;DHT22;5101;49.038;8.710;2022-10-16T15:21:53;23.40;92.70
10123;DHT22;5101;49.038;8.710;2022-10-16T15:24:19;23.30;93.00
10123;DHT22;5101;49.038;8.710;2022-10-16T15:26:44;23.30;93.20
10123;DHT22;5101;49.038;8.710;2022-10-16T15:29:11;23.30;93.30
10123;DHT22;5101;49.038;8.710;2022-10-16T15:31:37;23.30;93.40
10123;DHT22;5101;49.038;8.710;2022-10-16T15:34:03;23.30;93.50
10123;DHT22;5101;49.038;8.710;2022-10-16T15:36:35;23.20;93.50
10123;DHT22;5101;49.038;8.710;2022-10-16T15:39:08;23.20;93.70
10123;DHT22;5101;49.038;8.710;2022-10-16T15:41:35;23.10;93.80
10123;DHT22;5101;49.038;8.710;2022-10-16T15:44:01;23.20;94.10
10123;DHT22;5101;49.038;8.710;2022-10-16T15:46:26;23.10;94.40
10123;DHT22;5101;49.038;8.710;2022-10-16T15:48:59;23.10;94.60
10123;DHT22;5101;49.038;8.710;2022-10-16T15:51:26;23.10;94.90
10123;DHT22;5101;49.038;8.710;2022-10-16T15:53:58;23.00;95.00
10123;DHT22;5101;49.038;8.710;2022-10-16T15:56:27;23.00;95.10
10123;DHT22;5101;49.038;8.710;2022-10-16T15:58:54;22.90;95.10
10123;DHT22;5101;49.038;8.710;2022-10-16T16:01:19;22.80;95.30
10123;DHT22;5101;49.038;8.710;2022-10-16T16:03:45;22.60;95.50
10123;DHT22;5101;49.038;8.710;2022-10-16T16:06:12;22.60;95.60
10123;DHT22;5101;49.038;8.710;2022-10-16T16:08:38;22.60;95.80
10123;DHT22;5101;49.038;8.710;2022-10-16T16:11:09;22.60;96.00
10123;DHT22;5101;49.038;8.710;2022-10-16T16:13:35;22.50;96.50
10123;DHT22;5101;49.038;8.710;2022-10-16T16:16:06;22.50;96.50
10123;DHT22;5101;49.038;8.710;2022-10-16T16:18:32;22.40;96.80
10123;DHT22;5101;49.038;8.710;2022-10-16T16:20:58;22.20;97.10
10123;DHT22;5101;49.038;8.710;2022-10-16T16:23:23;22.10;97.40
10123;DHT22;5101;49.038;8.710;2022-10-16T16:26:09;22.00;97.70
10123;DHT22;5101;49.038;8.710;2022-10-16T16:28:36;21.90;98.40
10123;DHT22;5101;49.038;8.710;2022-10-16T16:31:02;21.90;98.00
10123;DHT22;5101;49.038;8.710;2022-10-16T16:33:29;21.80;98.20
10123;DHT22;5101;49.038;8.710;2022-10-16T16:35:59;21.70;98.40
10123;DHT22;5101;49.038;8.710;2022-10-16T16:38:25;21.50;98.80
10123;DHT22;5101;49.038;8.710;2022-10-16T16:40:51;21.50;98.80
10123;DHT22;5101;49.038;8.710;2022-10-16T16:43:17;21.60;99.00
10123;DHT22;5101;49.038;8.710;2022-10-16T16:45:43;21.30;99.10
10123;DHT22;5101;49.038;8.710;2022-10-16T16:48:09;21.20;99.30
10123;DHT22;5101;49.038;8.710;2022-10-16T16:50:37;21.20;99.40
10123;DHT22;5101;49.038;8.710;2022-10-16T16:53:03;21.10;99.60
10123;DHT22;5101;49.038;8.710;2022-10-16T16:55:28;21.10;99.50
10123;DHT22;5101;49.038;8.710;2022-10-16T16:57:54;21.00;99.60
10123;DHT22;5101;49.038;8.710;2022-10-16T17:00:20;21.00;99.90
10123;DHT22;5101;49.038;8.710;2022-10-16T17:02:48;20.90;99.70
10123;DHT22;5101;49.038;8.710;2022-10-16T17:05:14;20.60;99.90
10123;DHT22;5101;49.038;8.710;2022-10-16T17:07:39;20.40;99.90
10123;DHT22;5101;49.038;8.710;2022-10-16T17:10:06;20.30;99.90
10123;DHT22;5101;49.038;8.710;2022-10-16T17:12:32;20.30;99.90
10123;DHT22;5101;49.038;8.710;2022-10-16T17:14:58;20.30;99.90
10123;DHT22;5101;49.038;8.710;2022-10-16T17:17:23;20.20;99.90
10123;DHT22;5101;49.038;8.710;2022-10-16T17:19:50;20.10;99.90
10123;DHT22;5101;49.038;8.710;2022-10-16T17:22:15;20.10;99.90
10123;DHT22;5101;49.038;8.710;2022-10-16T17:24:41;20.00;99.90
10123;DHT22;5101;49.038;8.710;2022-10-16T17:27:07;20.00;99.90
10123;DHT22;5101;49.038;8.710;2022-10-16T17:29:32;19.90;99.90
10123;DHT22;5101;49.038;8.710;2022-10-16T17:31:58;19.80;99.90
10123;DHT22;5101;49.038;8.710;2022-10-16T17:34:24;19.70;99.90
10123;DHT22;5101;49.038;8.710;2022-10-16T17:36:49;19.60;99.90
10123;DHT22;5101;49.038;8.710;2022-10-16T17:39:16;19.50;99.90
10123;DHT22;5101;49.038;8.710;2022-10-16T17:41:42;19.50;99.90
10123;DHT22;5101;49.038;8.710;2022-10-16T17:44:09;19.50;99.90
10123;DHT22;5101;49.038;8.710;2022-10-16T17:46:35;19.40;99.90
10123;DHT22;5101;49.038;8.710;2022-10-16T17:49:00;19.40;99.90